sensor_id;sensor_type;location;lat;lon;timestamp;pressure;altitude;pressure_sealevel;temperature;humidity
77823;BME280;67013;49.730;17.292;2023-02-28T00:00:28;99394.54;;;-1.73;61.52
77823;BME280;67013;49.730;17.292;2023-02-28T00:02:57;99395.73;;;-1.74;61.75
77823;BME280;67013;49.730;17.292;2023-02-28T00:05:28;99396.93;;;-1.76;61.71
77823;BME280;67013;49.730;17.292;2023-02-28T00:07:58;99394.73;;;-1.78;61.73
77823;BME280;67013;49.730;17.292;2023-02-28T00:10:29;99398.84;;;-1.79;61.87
77823;BME280;67013;49.730;17.292;2023-02-28T00:13:01;99399.54;;;-1.80;61.61
77823;BME280;67013;49.730;17.292;2023-02-28T00:15:32;99390.52;;;-1.81;61.56
77823;BME280;67013;49.730;17.292;2023-02-28T00:18:02;99394.27;;;-1.83;61.64
77823;BME280;67013;49.730;17.292;2023-02-28T00:20:32;99395.29;;;-1.83;62.05
77823;BME280;67013;49.730;17.292;2023-02-28T00:23:01;99394.77;;;-1.80;61.95
77823;BME280;67013;49.730;17.292;2023-02-28T00:25:31;99393.34;;;-1.75;61.86
77823;BME280;67013;49.730;17.292;2023-02-28T00:28:00;99393.48;;;-1.68;61.57
77823;BME280;67013;49.730;17.292;2023-02-28T00:30:30;99391.39;;;-1.64;61.43
77823;BME280;67013;49.730;17.292;2023-02-28T00:32:59;99389.48;;;-1.59;61.35
77823;BME280;67013;49.730;17.292;2023-02-28T00:35:29;99392.70;;;-1.58;61.46
77823;BME280;67013;49.730;17.292;2023-02-28T00:37:58;99389.80;;;-1.56;61.27
77823;BME280;67013;49.730;17.292;2023-02-28T00:40:28;99389.30;;;-1.59;61.25
77823;BME280;67013;49.730;17.292;2023-02-28T00:42:57;99387.61;;;-1.62;61.18
77823;BME280;67013;49.730;17.292;2023-02-28T00:45:27;99380.48;;;-1.64;61.16
77823;BME280;67013;49.730;17.292;2023-02-28T00:47:56;99382.90;;;-1.67;61.36
77823;BME280;67013;49.730;17.292;2023-02-28T00:50:26;99381.21;;;-1.71;61.56
77823;BME280;67013;49.730;17.292;2023-02-28T00:52:56;99385.84;;;-1.75;61.79
77823;BME280;67013;49.730;17.292;2023-02-28T00:55:25;99384.68;;;-1.78;61.72
77823;BME280;67013;49.730;17.292;2023-02-28T00:57:55;99388.80;;;-1.81;61.78
77823;BME280;67013;49.730;17.292;2023-02-28T01:00:25;99384.73;;;-1.84;61.96
77823;BME280;67013;49.730;17.292;2023-02-28T01:02:54;99384.91;;;-1.86;61.98
77823;BME280;67013;49.730;17.292;2023-02-28T01:05:23;99386.10;;;-1.88;61.89
77823;BME280;67013;49.730;17.292;2023-02-28T01:07:53;99385.25;;;-1.88;61.93
77823;BME280;67013;49.730;17.292;2023-02-28T01:10:22;99384.40;;;-1.88;62.13
77823;BME280;67013;49.730;17.292;2023-02-28T01:12:52;99380.49;;;-1.90;62.07
77823;BME280;67013;49.730;17.292;2023-02-28T01:15:21;99383.03;;;-1.87;62.18
77823;BME280;67013;49.730;17.292;2023-02-28T01:17:51;99382.69;;;-1.84;61.90
77823;BME280;67013;49.730;17.292;2023-02-28T01:20:21;99383.17;;;-1.81;61.93
77823;BME280;67013;49.730;17.292;2023-02-28T01:22:50;99380.61;;;-1.79;61.94
77823;BME280;67013;49.730;17.292;2023-02-28T01:25:20;99384.66;;;-1.78;61.81
77823;BME280;67013;49.730;17.292;2023-02-28T01:27:49;99385.35;;;-1.78;61.73
77823;BME280;67013;49.730;17.292;2023-02-28T01:30:19;99379.88;;;-1.76;61.60
77823;BME280;67013;49.730;17.292;2023-02-28T01:32:48;99384.98;;;-1.75;61.72
77823;BME280;67013;49.730;17.292;2023-02-28T01:35:19;99383.46;;;-1.76;61.55
77823;BME280;67013;49.730;17.292;2023-02-28T01:37:49;99388.23;;;-1.76;61.79
77823;BME280;67013;49.730;17.292;2023-02-28T01:40:19;99382.29;;;-1.78;61.53
77823;BME280;67013;49.730;17.292;2023-02-28T01:42:48;99383.17;;;-1.80;61.74
77823;BME280;67013;49.730;17.292;2023-02-28T01:45:24;99384.02;;;-1.80;61.70
77823;BME280;67013;49.730;17.292;2023-02-28T01:47:57;99382.84;;;-1.82;61.75
77823;BME280;67013;49.730;17.292;2023-02-28T01:50:31;99377.23;;;-1.84;62.01
77823;BME280;67013;49.730;17.292;2023-02-28T01:53:05;99380.98;;;-1.86;62.18
77823;BME280;67013;49.730;17.292;2023-02-28T01:55:36;99377.23;;;-1.87;62.03
77823;BME280;67013;49.730;17.292;2023-02-28T01:58:08;99375.88;;;-1.88;62.17
77823;BME280;67013;49.730;17.292;2023-02-28T02:00:38;99373.67;;;-1.89;62.06
77823;BME280;67013;49.730;17.292;2023-02-28T02:03:11;99369.57;;;-1.87;62.21
77823;BME280;67013;49.730;17.292;2023-02-28T02:05:40;99367.34;;;-1.85;62.20
77823;BME280;67013;49.730;17.292;2023-02-28T02:08:19;99371.77;;;-1.83;62.32
77823;BME280;67013;49.730;17.292;2023-02-28T02:10:50;99373.13;;;-1.81;61.87
77823;BME280;67013;49.730;17.292;2023-02-28T02:13:45;99372.42;;;-1.79;61.88
77823;BME280;67013;49.730;17.292;2023-02-28T02:16:35;99369.66;;;-1.78;61.70
77823;BME280;67013;49.730;17.292;2023-02-28T02:19:21;99370.52;;;-1.78;61.82
77823;BME280;67013;49.730;17.292;2023-02-28T02:22:13;99370.02;;;-1.79;61.74
77823;BME280;67013;49.730;17.292;2023-02-28T02:25:10;99368.17;;;-1.81;61.93
77823;BME280;67013;49.730;17.292;2023-02-28T02:30:57;99365.11;;;-1.82;61.89
77823;BME280;67013;49.730;17.292;2023-02-28T02:36:48;99366.65;;;-1.84;62.04
77823;BME280;67013;49.730;17.292;2023-02-28T02:39:25;99369.73;;;-1.85;62.31
77823;BME280;67013;49.730;17.292;2023-02-28T02:42:03;99370.09;;;-1.88;62.15
77823;BME280;67013;49.730;17.292;2023-02-28T02:44:39;99370.77;;;-1.88;62.04
77823;BME280;67013;49.730;17.292;2023-02-28T02:47:15;99367.19;;;-1.88;61.97
77823;BME280;67013;49.730;17.292;2023-02-28T02:49:49;99360.20;;;-1.88;61.95
77823;BME280;67013;49.730;17.292;2023-02-28T02:52:23;99366.14;;;-1.84;61.89
77823;BME280;67013;49.730;17.292;2023-02-28T02:54:56;99367.83;;;-1.81;61.39
77823;BME280;67013;49.730;17.292;2023-02-28T02:57:31;99371.70;;;-1.76;61.65
77823;BME280;67013;49.730;17.292;2023-02-28T03:00:04;99373.91;;;-1.75;61.82
77823;BME280;67013;49.730;17.292;2023-02-28T03:02:37;99372.05;;;-1.76;61.55
77823;BME280;67013;49.730;17.292;2023-02-28T03:05:12;99372.20;;;-1.74;61.63
77823;BME280;67013;49.730;17.292;2023-02-28T03:07:43;99378.68;;;-1.76;61.42
77823;BME280;67013;49.730;17.292;2023-02-28T03:10:34;99376.81;;;-1.76;61.46
77823;BME280;67013;49.730;17.292;2023-02-28T03:16:29;99384.67;;;-1.78;61.34
77823;BME280;67013;49.730;17.292;2023-02-28T03:19:06;99387.60;;;-1.80;61.63
77823;BME280;67013;49.730;17.292;2023-02-28T03:21:45;99389.64;;;-1.79;61.51
77823;BME280;67013;49.730;17.292;2023-02-28T03:24:21;99394.56;;;-1.78;61.49
77823;BME280;67013;49.730;17.292;2023-02-28T03:26:58;99395.24;;;-1.78;61.68
77823;BME280;67013;49.730;17.292;2023-02-28T03:29:35;99387.39;;;-1.77;61.61
77823;BME280;67013;49.730;17.292;2023-02-28T03:32:13;99390.83;;;-1.79;61.46
77823;BME280;67013;49.730;17.292;2023-02-28T03:34:53;99390.14;;;-1.79;61.43
77823;BME280;67013;49.730;17.292;2023-02-28T03:37:27;99385.90;;;-1.80;61.81
77823;BME280;67013;49.730;17.292;2023-02-28T03:40:01;99392.21;;;-1.82;61.78
77823;BME280;67013;49.730;17.292;2023-02-28T03:42:36;99385.39;;;-1.81;61.64
77823;BME280;67013;49.730;17.292;2023-02-28T03:45:13;99393.04;;;-1.78;61.72
77823;BME280;67013;49.730;17.292;2023-02-28T03:47:49;99390.61;;;-1.74;61.76
77823;BME280;67013;49.730;17.292;2023-02-28T03:50:23;99393.33;;;-1.73;61.72
77823;BME280;67013;49.730;17.292;2023-02-28T03:52:57;99401.00;;;-1.74;61.91
77823;BME280;67013;49.730;17.292;2023-02-28T03:55:32;99395.21;;;-1.73;61.96
77823;BME280;67013;49.730;17.292;2023-02-28T03:58:07;99396.23;;;-1.74;61.95
77823;BME280;67013;49.730;17.292;2023-02-28T04:00:43;99394.71;;;-1.75;61.84
77823;BME280;67013;49.730;17.292;2023-02-28T04:03:15;99395.92;;;-1.77;61.94
77823;BME280;67013;49.730;17.292;2023-02-28T04:05:51;99393.40;;;-1.79;61.83
77823;BME280;67013;49.730;17.292;2023-02-28T04:08:21;99400.05;;;-1.82;61.76
77823;BME280;67013;49.730;17.292;2023-02-28T04:10:55;99396.99;;;-1.82;61.63
77823;BME280;67013;49.730;17.292;2023-02-28T04:13:26;99399.90;;;-1.85;61.70
77823;BME280;67013;49.730;17.292;2023-02-28T04:15:56;99401.44;;;-1.87;61.90
77823;BME280;67013;49.730;17.292;2023-02-28T04:18:26;99403.84;;;-1.88;61.86
77823;BME280;67013;49.730;17.292;2023-02-28T04:20:55;99404.00;;;-1.86;61.82
77823;BME280;67013;49.730;17.292;2023-02-28T04:23:29;99405.36;;;-1.84;61.75
77823;BME280;67013;49.730;17.292;2023-02-28T04:25:59;99403.46;;;-1.83;61.80
77823;BME280;67013;49.730;17.292;2023-02-28T04:28:28;99409.27;;;-1.81;61.63
77823;BME280;67013;49.730;17.292;2023-02-28T04:30:59;99405.85;;;-1.82;61.47
77823;BME280;67013;49.730;17.292;2023-02-28T04:33:29;99404.98;;;-1.80;61.59
77823;BME280;67013;49.730;17.292;2023-02-28T04:36:04;99408.74;;;-1.80;61.45
77823;BME280;67013;49.730;17.292;2023-02-28T04:38:37;99404.15;;;-1.82;61.43
77823;BME280;67013;49.730;17.292;2023-02-28T04:41:07;99406.20;;;-1.83;61.33
77823;BME280;67013;49.730;17.292;2023-02-28T04:43:36;99409.27;;;-1.84;61.29
77823;BME280;67013;49.730;17.292;2023-02-28T04:46:07;99410.14;;;-1.86;61.49
77823;BME280;67013;49.730;17.292;2023-02-28T04:48:38;99409.64;;;-1.88;61.31
77823;BME280;67013;49.730;17.292;2023-02-28T04:51:11;99412.88;;;-1.90;61.59
77823;BME280;67013;49.730;17.292;2023-02-28T04:53:42;99414.77;;;-1.92;61.54
77823;BME280;67013;49.730;17.292;2023-02-28T04:56:13;99410.86;;;-1.93;61.62
77823;BME280;67013;49.730;17.292;2023-02-28T04:58:43;99411.20;;;-1.92;61.71
77823;BME280;67013;49.730;17.292;2023-02-28T05:01:21;99409.84;;;-1.93;61.74
77823;BME280;67013;49.730;17.292;2023-02-28T05:03:52;99413.10;;;-1.94;61.77
77823;BME280;67013;49.730;17.292;2023-02-28T05:06:23;99416.84;;;-1.94;61.77
77823;BME280;67013;49.730;17.292;2023-02-28T05:08:53;99415.28;;;-1.92;61.74
77823;BME280;67013;49.730;17.292;2023-02-28T05:11:25;99418.67;;;-1.90;61.41
77823;BME280;67013;49.730;17.292;2023-02-28T05:13:57;99419.35;;;-1.88;61.38
77823;BME280;67013;49.730;17.292;2023-02-28T05:16:26;99424.64;;;-1.88;61.22
77823;BME280;67013;49.730;17.292;2023-02-28T05:18:56;99422.09;;;-1.90;61.27
77823;BME280;67013;49.730;17.292;2023-02-28T05:21:28;99420.73;;;-1.90;61.31
77823;BME280;67013;49.730;17.292;2023-02-28T05:23:59;99419.70;;;-1.91;61.42
77823;BME280;67013;49.730;17.292;2023-02-28T05:26:30;99421.59;;;-1.92;61.31
77823;BME280;67013;49.730;17.292;2023-02-28T05:28:59;99424.52;;;-1.94;61.46
77823;BME280;67013;49.730;17.292;2023-02-28T05:31:29;99429.82;;;-1.97;61.47
77823;BME280;67013;49.730;17.292;2023-02-28T05:33:58;99427.27;;;-1.98;61.58
77823;BME280;67013;49.730;17.292;2023-02-28T05:36:28;99430.50;;;-1.99;61.45
77823;BME280;67013;49.730;17.292;2023-02-28T05:38:57;99433.74;;;-2.00;61.43
77823;BME280;67013;49.730;17.292;2023-02-28T05:41:26;99434.42;;;-1.99;61.58
77823;BME280;67013;49.730;17.292;2023-02-28T05:43:56;99438.00;;;-1.98;61.49
77823;BME280;67013;49.730;17.292;2023-02-28T05:46:26;99441.92;;;-1.99;61.36
77823;BME280;67013;49.730;17.292;2023-02-28T05:48:55;99443.11;;;-1.96;61.33
77823;BME280;67013;49.730;17.292;2023-02-28T05:51:28;99447.34;;;-1.93;60.96
77823;BME280;67013;49.730;17.292;2023-02-28T05:54:01;99446.63;;;-1.89;61.09
77823;BME280;67013;49.730;17.292;2023-02-28T05:56:30;99453.61;;;-1.87;60.94
77823;BME280;67013;49.730;17.292;2023-02-28T05:59:02;99452.73;;;-1.84;60.83
77823;BME280;67013;49.730;17.292;2023-02-28T06:01:37;99458.70;;;-1.82;60.90
77823;BME280;67013;49.730;17.292;2023-02-28T06:04:08;99457.82;;;-1.78;60.57
77823;BME280;67013;49.730;17.292;2023-02-28T06:06:38;99460.52;;;-1.73;60.43
77823;BME280;67013;49.730;17.292;2023-02-28T06:09:08;99463.06;;;-1.70;60.53
77823;BME280;67013;49.730;17.292;2023-02-28T06:11:37;99466.45;;;-1.66;60.03
77823;BME280;67013;49.730;17.292;2023-02-28T06:14:07;99469.33;;;-1.63;60.23
77823;BME280;67013;49.730;17.292;2023-02-28T06:16:37;99471.85;;;-1.60;60.16
77823;BME280;67013;49.730;17.292;2023-02-28T06:19:06;99470.48;;;-1.58;59.83
77823;BME280;67013;49.730;17.292;2023-02-28T06:21:36;99473.20;;;-1.55;59.62
77823;BME280;67013;49.730;17.292;2023-02-28T06:24:07;99473.35;;;-1.52;59.56
77823;BME280;67013;49.730;17.292;2023-02-28T06:26:36;99476.70;;;-1.47;59.75
77823;BME280;67013;49.730;17.292;2023-02-28T06:29:06;99490.33;;;-1.42;59.42
77823;BME280;67013;49.730;17.292;2023-02-28T06:31:35;99489.78;;;-1.35;59.26
77823;BME280;67013;49.730;17.292;2023-02-28T06:34:06;99490.22;;;-1.27;59.04
77823;BME280;67013;49.730;17.292;2023-02-28T06:36:36;99489.98;;;-1.17;58.71
77823;BME280;67013;49.730;17.292;2023-02-28T06:39:05;99494.82;;;-1.04;58.64
77823;BME280;67013;49.730;17.292;2023-02-28T06:41:35;99500.30;;;-0.87;57.94
77823;BME280;67013;49.730;17.292;2023-02-28T06:44:12;99495.83;;;-0.65;57.37
77823;BME280;67013;49.730;17.292;2023-02-28T06:46:43;99501.71;;;-0.39;56.50
77823;BME280;67013;49.730;17.292;2023-02-28T06:49:14;99502.73;;;-0.10;55.86
77823;BME280;67013;49.730;17.292;2023-02-28T06:51:44;99505.52;;;0.26;55.64
77823;BME280;67013;49.730;17.292;2023-02-28T06:54:14;99509.36;;;0.69;54.15
77823;BME280;67013;49.730;17.292;2023-02-28T06:56:44;99504.48;;;1.16;53.19
77823;BME280;67013;49.730;17.292;2023-02-28T06:59:13;99504.45;;;1.66;51.78
77823;BME280;67013;49.730;17.292;2023-02-28T07:01:42;99501.37;;;2.24;50.60
77823;BME280;67013;49.730;17.292;2023-02-28T07:04:12;99504.70;;;2.96;49.21
77823;BME280;67013;49.730;17.292;2023-02-28T07:06:42;99498.82;;;3.71;47.81
77823;BME280;67013;49.730;17.292;2023-02-28T07:09:11;99510.23;;;4.30;46.50
77823;BME280;67013;49.730;17.292;2023-02-28T07:11:41;99510.13;;;4.78;44.78
77823;BME280;67013;49.730;17.292;2023-02-28T07:14:11;99507.29;;;5.18;43.84
77823;BME280;67013;49.730;17.292;2023-02-28T07:16:41;99506.07;;;5.54;42.90
77823;BME280;67013;49.730;17.292;2023-02-28T07:19:10;99502.07;;;5.99;42.53
77823;BME280;67013;49.730;17.292;2023-02-28T07:21:40;99506.55;;;6.50;41.13
77823;BME280;67013;49.730;17.292;2023-02-28T07:24:09;99515.55;;;7.07;40.02
77823;BME280;67013;49.730;17.292;2023-02-28T07:26:39;99515.79;;;7.59;39.22
77823;BME280;67013;49.730;17.292;2023-02-28T07:29:08;99513.89;;;7.99;39.13
77823;BME280;67013;49.730;17.292;2023-02-28T07:31:38;99521.67;;;8.99;36.78
77823;BME280;67013;49.730;17.292;2023-02-28T07:34:07;99523.55;;;10.59;34.63
77823;BME280;67013;49.730;17.292;2023-02-28T07:36:37;99527.73;;;11.92;33.76
77823;BME280;67013;49.730;17.292;2023-02-28T07:39:06;99532.52;;;13.48;31.97
77823;BME280;67013;49.730;17.292;2023-02-28T07:41:37;99534.41;;;15.01;29.00
77823;BME280;67013;49.730;17.292;2023-02-28T07:44:11;99536.31;;;16.36;28.25
77823;BME280;67013;49.730;17.292;2023-02-28T07:46:41;99538.45;;;17.56;26.88
77823;BME280;67013;49.730;17.292;2023-02-28T07:49:11;99535.14;;;18.58;25.51
77823;BME280;67013;49.730;17.292;2023-02-28T07:51:40;99534.63;;;19.56;24.00
77823;BME280;67013;49.730;17.292;2023-02-28T07:54:10;99531.88;;;20.06;22.88
77823;BME280;67013;49.730;17.292;2023-02-28T07:56:39;99539.85;;;19.99;22.27
77823;BME280;67013;49.730;17.292;2023-02-28T07:59:08;99536.01;;;20.15;22.37
77823;BME280;67013;49.730;17.292;2023-02-28T08:01:38;99534.59;;;20.36;22.09
77823;BME280;67013;49.730;17.292;2023-02-28T08:04:08;99542.91;;;20.67;21.85
77823;BME280;67013;49.730;17.292;2023-02-28T08:06:37;99540.86;;;21.08;21.38
77823;BME280;67013;49.730;17.292;2023-02-28T08:09:06;99535.95;;;21.40;21.08
77823;BME280;67013;49.730;17.292;2023-02-28T08:11:36;99532.33;;;22.00;20.55
77823;BME280;67013;49.730;17.292;2023-02-28T08:14:05;99534.00;;;22.63;20.15
77823;BME280;67013;49.730;17.292;2023-02-28T08:16:35;99529.54;;;22.70;18.51
77823;BME280;67013;49.730;17.292;2023-02-28T08:19:05;99530.85;;;22.77;18.79
77823;BME280;67013;49.730;17.292;2023-02-28T08:21:34;99535.08;;;23.27;18.52
77823;BME280;67013;49.730;17.292;2023-02-28T08:24:04;99530.09;;;23.90;18.02
77823;BME280;67013;49.730;17.292;2023-02-28T08:26:34;99535.02;;;24.46;17.46
77823;BME280;67013;49.730;17.292;2023-02-28T08:29:03;99537.21;;;24.86;16.93
77823;BME280;67013;49.730;17.292;2023-02-28T08:31:33;99537.69;;;25.17;16.51
77823;BME280;67013;49.730;17.292;2023-02-28T08:34:06;99538.05;;;25.56;17.16
77823;BME280;67013;49.730;17.292;2023-02-28T08:36:36;99541.48;;;26.01;16.22
77823;BME280;67013;49.730;17.292;2023-02-28T08:39:06;99541.78;;;26.25;15.78
77823;BME280;67013;49.730;17.292;2023-02-28T08:41:37;99533.08;;;26.19;14.58
77823;BME280;67013;49.730;17.292;2023-02-28T08:44:06;99544.62;;;25.83;15.06
77823;BME280;67013;49.730;17.292;2023-02-28T08:46:36;99541.56;;;25.80;15.72
77823;BME280;67013;49.730;17.292;2023-02-28T08:49:05;99538.58;;;26.14;15.14
77823;BME280;67013;49.730;17.292;2023-02-28T08:51:35;99541.38;;;26.52;15.48
77823;BME280;67013;49.730;17.292;2023-02-28T08:54:05;99546.59;;;27.12;15.64
77823;BME280;67013;49.730;17.292;2023-02-28T08:56:35;99548.08;;;27.51;14.41
77823;BME280;67013;49.730;17.292;2023-02-28T08:59:05;99551.17;;;27.34;14.12
77823;BME280;67013;49.730;17.292;2023-02-28T09:01:34;99543.77;;;27.09;13.92
77823;BME280;67013;49.730;17.292;2023-02-28T09:04:05;99546.88;;;26.44;14.30
77823;BME280;67013;49.730;17.292;2023-02-28T09:06:36;99547.55;;;25.64;14.73
77823;BME280;67013;49.730;17.292;2023-02-28T09:09:06;99552.23;;;25.32;15.18
77823;BME280;67013;49.730;17.292;2023-02-28T09:11:36;99551.80;;;25.21;15.14
77823;BME280;67013;49.730;17.292;2023-02-28T09:14:05;99548.38;;;25.14;14.85
77823;BME280;67013;49.730;17.292;2023-02-28T09:16:35;99544.38;;;24.81;14.78
77823;BME280;67013;49.730;17.292;2023-02-28T09:19:04;99540.77;;;24.52;15.19
77823;BME280;67013;49.730;17.292;2023-02-28T09:21:34;99541.17;;;24.67;15.48
77823;BME280;67013;49.730;17.292;2023-02-28T09:24:04;99543.30;;;24.81;15.03
77823;BME280;67013;49.730;17.292;2023-02-28T09:26:33;99541.38;;;25.09;15.08
77823;BME280;67013;49.730;17.292;2023-02-28T09:29:03;99548.63;;;25.27;14.60
77823;BME280;67013;49.730;17.292;2023-02-28T09:31:33;99547.95;;;25.30;14.50
77823;BME280;67013;49.730;17.292;2023-02-28T09:34:03;99550.36;;;25.59;14.58
77823;BME280;67013;49.730;17.292;2023-02-28T09:36:33;99550.77;;;26.03;14.25
77823;BME280;67013;49.730;17.292;2023-02-28T09:39:03;99543.19;;;26.13;13.79
77823;BME280;67013;49.730;17.292;2023-02-28T09:41:39;99545.05;;;26.10;14.03
77823;BME280;67013;49.730;17.292;2023-02-28T09:44:22;99546.36;;;26.24;14.38
77823;BME280;67013;49.730;17.292;2023-02-28T09:46:57;99549.41;;;26.36;14.18
77823;BME280;67013;49.730;17.292;2023-02-28T09:49:34;99546.71;;;26.49;14.06
77823;BME280;67013;49.730;17.292;2023-02-28T09:52:09;99547.96;;;26.64;14.17
77823;BME280;67013;49.730;17.292;2023-02-28T09:54:39;99547.03;;;26.58;13.79
77823;BME280;67013;49.730;17.292;2023-02-28T09:57:13;99549.23;;;26.19;13.45
77823;BME280;67013;49.730;17.292;2023-02-28T09:59:57;99553.73;;;25.84;14.27
77823;BME280;67013;49.730;17.292;2023-02-28T10:02:48;99546.63;;;25.42;14.65
77823;BME280;67013;49.730;17.292;2023-02-28T10:05:23;99549.67;;;23.97;15.52
77823;BME280;67013;49.730;17.292;2023-02-28T10:08:10;99551.39;;;22.09;16.30
77823;BME280;67013;49.730;17.292;2023-02-28T10:10:43;99544.51;;;19.97;17.65
77823;BME280;67013;49.730;17.292;2023-02-28T10:13:21;99546.31;;;17.93;19.11
77823;BME280;67013;49.730;17.292;2023-02-28T10:15:56;99548.84;;;16.42;20.74
77823;BME280;67013;49.730;17.292;2023-02-28T10:18:34;99548.44;;;15.35;22.04
77823;BME280;67013;49.730;17.292;2023-02-28T10:21:08;99550.88;;;14.35;23.21
77823;BME280;67013;49.730;17.292;2023-02-28T10:23:43;99548.36;;;13.57;24.13
77823;BME280;67013;49.730;17.292;2023-02-28T10:26:16;99545.02;;;12.90;24.59
77823;BME280;67013;49.730;17.292;2023-02-28T10:28:46;99543.79;;;12.44;25.91
77823;BME280;67013;49.730;17.292;2023-02-28T10:31:19;99538.60;;;11.97;26.67
77823;BME280;67013;49.730;17.292;2023-02-28T10:33:49;99536.63;;;11.63;27.15
77823;BME280;67013;49.730;17.292;2023-02-28T10:36:20;99539.25;;;11.30;28.00
77823;BME280;67013;49.730;17.292;2023-02-28T10:38:50;99540.48;;;11.11;28.37
77823;BME280;67013;49.730;17.292;2023-02-28T10:41:30;99543.63;;;10.77;28.59
77823;BME280;67013;49.730;17.292;2023-02-28T10:44:22;99543.33;;;10.44;29.09
77823;BME280;67013;49.730;17.292;2023-02-28T10:46:52;99543.73;;;10.13;29.64
77823;BME280;67013;49.730;17.292;2023-02-28T10:49:24;99536.52;;;9.98;30.12
77823;BME280;67013;49.730;17.292;2023-02-28T10:51:56;99532.63;;;9.80;30.80
77823;BME280;67013;49.730;17.292;2023-02-28T10:54:30;99528.05;;;9.61;31.09
77823;BME280;67013;49.730;17.292;2023-02-28T10:57:18;99532.29;;;9.46;31.53
77823;BME280;67013;49.730;17.292;2023-02-28T10:59:52;99534.03;;;9.35;31.93
77823;BME280;67013;49.730;17.292;2023-02-28T11:02:34;99532.05;;;9.15;32.20
77823;BME280;67013;49.730;17.292;2023-02-28T11:05:25;99526.81;;;8.98;32.65
77823;BME280;67013;49.730;17.292;2023-02-28T11:07:56;99529.95;;;8.79;32.87
77823;BME280;67013;49.730;17.292;2023-02-28T11:10:34;99524.52;;;8.74;33.00
77823;BME280;67013;49.730;17.292;2023-02-28T11:13:04;99524.67;;;8.70;32.74
77823;BME280;67013;49.730;17.292;2023-02-28T11:15:35;99524.70;;;8.66;32.96
77823;BME280;67013;49.730;17.292;2023-02-28T11:18:18;99520.02;;;8.62;33.13
77823;BME280;67013;49.730;17.292;2023-02-28T11:20:48;99516.00;;;8.44;33.24
77823;BME280;67013;49.730;17.292;2023-02-28T11:23:19;99517.67;;;8.30;33.47
77823;BME280;67013;49.730;17.292;2023-02-28T11:25:52;99514.37;;;8.30;33.88
77823;BME280;67013;49.730;17.292;2023-02-28T11:28:30;99518.67;;;8.27;33.83
77823;BME280;67013;49.730;17.292;2023-02-28T11:31:08;99517.45;;;8.20;33.70
77823;BME280;67013;49.730;17.292;2023-02-28T11:33:44;99502.37;;;8.01;34.30
77823;BME280;67013;49.730;17.292;2023-02-28T11:36:20;99508.27;;;7.81;34.67
77823;BME280;67013;49.730;17.292;2023-02-28T11:38:53;99507.48;;;7.75;35.05
77823;BME280;67013;49.730;17.292;2023-02-28T11:41:40;99512.16;;;7.67;35.44
77823;BME280;67013;49.730;17.292;2023-02-28T11:44:27;99504.61;;;7.49;42.20
77823;BME280;67013;49.730;17.292;2023-02-28T11:47:04;99500.97;;;7.57;38.07
77823;BME280;67013;49.730;17.292;2023-02-28T11:49:44;99498.33;;;7.58;36.55
77823;BME280;67013;49.730;17.292;2023-02-28T11:52:24;99489.24;;;7.53;35.70
77823;BME280;67013;49.730;17.292;2023-02-28T11:55:07;99493.23;;;7.40;36.11
77823;BME280;67013;49.730;17.292;2023-02-28T11:57:55;99495.48;;;7.24;36.14
77823;BME280;67013;49.730;17.292;2023-02-28T12:00:40;99498.16;;;7.13;36.21
77823;BME280;67013;49.730;17.292;2023-02-28T12:03:21;99494.58;;;7.08;36.35
77823;BME280;67013;49.730;17.292;2023-02-28T12:06:01;99492.03;;;6.98;36.16
77823;BME280;67013;49.730;17.292;2023-02-28T12:08:43;99493.84;;;6.87;36.73
77823;BME280;67013;49.730;17.292;2023-02-28T12:11:23;99493.92;;;6.77;36.36
77823;BME280;67013;49.730;17.292;2023-02-28T12:14:06;99490.07;;;6.69;36.62
77823;BME280;67013;49.730;17.292;2023-02-28T12:16:59;99490.77;;;6.61;37.02
77823;BME280;67013;49.730;17.292;2023-02-28T12:19:38;99482.28;;;6.53;37.13
77823;BME280;67013;49.730;17.292;2023-02-28T12:22:30;99474.02;;;6.52;37.27
77823;BME280;67013;49.730;17.292;2023-02-28T12:25:33;99476.09;;;6.47;37.50
77823;BME280;67013;49.730;17.292;2023-02-28T12:28:11;99471.45;;;6.42;37.59
77823;BME280;67013;49.730;17.292;2023-02-28T12:30:49;99469.05;;;6.37;37.34
77823;BME280;67013;49.730;17.292;2023-02-28T12:33:24;99475.99;;;6.27;37.59
77823;BME280;67013;49.730;17.292;2023-02-28T12:35:58;99469.77;;;6.18;38.16
77823;BME280;67013;49.730;17.292;2023-02-28T12:38:29;99462.96;;;6.02;37.90
77823;BME280;67013;49.730;17.292;2023-02-28T12:41:04;99463.86;;;5.81;38.60
77823;BME280;67013;49.730;17.292;2023-02-28T12:43:40;99465.10;;;5.76;38.68
77823;BME280;67013;49.730;17.292;2023-02-28T12:46:14;99464.23;;;5.80;39.15
77823;BME280;67013;49.730;17.292;2023-02-28T12:48:50;99466.58;;;5.83;39.30
77823;BME280;67013;49.730;17.292;2023-02-28T12:51:22;99467.35;;;5.85;38.92
77823;BME280;67013;49.730;17.292;2023-02-28T12:54:02;99465.30;;;5.84;38.92
77823;BME280;67013;49.730;17.292;2023-02-28T12:56:45;99460.81;;;5.84;39.11
77823;BME280;67013;49.730;17.292;2023-02-28T12:59:25;99462.31;;;5.81;39.31
77823;BME280;67013;49.730;17.292;2023-02-28T13:02:09;99462.98;;;5.67;39.05
77823;BME280;67013;49.730;17.292;2023-02-28T13:27:35;99442.38;;;5.88;39.56
77823;BME280;67013;49.730;17.292;2023-02-28T13:33:24;99449.98;;;5.59;40.59
77823;BME280;67013;49.730;17.292;2023-02-28T13:36:23;99443.20;;;5.51;40.92
77823;BME280;67013;49.730;17.292;2023-02-28T13:38:55;99441.48;;;5.46;41.06
77823;BME280;67013;49.730;17.292;2023-02-28T13:41:45;99439.11;;;5.40;41.50
77823;BME280;67013;49.730;17.292;2023-02-28T13:44:17;99435.39;;;5.28;41.43
77823;BME280;67013;49.730;17.292;2023-02-28T13:47:25;99431.56;;;5.19;41.12
77823;BME280;67013;49.730;17.292;2023-02-28T13:50:16;99420.81;;;5.11;41.54
77823;BME280;67013;49.730;17.292;2023-02-28T13:53:03;99429.34;;;5.08;41.94
77823;BME280;67013;49.730;17.292;2023-02-28T13:55:48;99421.42;;;5.03;41.89
77823;BME280;67013;49.730;17.292;2023-02-28T13:58:39;99421.60;;;4.97;41.86
77823;BME280;67013;49.730;17.292;2023-02-28T14:01:21;99418.48;;;4.88;42.00